Eser — 3FAO4 — position and weather

sailwx.info

Track history (hours):
 
Tides and Currents Weather Stations Pressure Air Temp Water Temp Dewpoint Dewpoint Depression Visibility Wind Speed Wind Dir Waves Ship Positions

Eser

Last reported at 2018-May-27 22:03 UTC. Time now 2018-Jun-25 11:42 UTC.
Position N 09°15' W 015°21'.
Warning: this ship's position is 28 days out of date.

Length 99 m; draft 4.3 m.

Type: Cargo ship. MMSI: 353595000.

Date/timePositionNaut miles runAvg speedWind from/ knotsBaromVisibWave heightAir tempDewpointWater temp
2018-May-27 22:03N 09°15' W 015°21'511.8
2018-May-27 21:36N 09°19' W 015°25'  
2018-May-18 08:52N 09°04' W 015°12'10 9.2
2018-May-18 07:48N 08°57' W 015°05'3 9.4
2018-May-18 07:30N 08°55' W 015°03'5 9.6
2018-May-18 07:00N 08°51' W 015°00'6 9.4
2018-May-18 06:25N 08°47' W 014°56'4 9.4
2018-May-18 06:00N 08°44' W 014°54'5 9.6
2018-May-18 05:30N 08°40' W 014°51'10 9.7
2018-May-18 04:26N 08°33' W 014°44'4 9.8
2018-May-18 04:00N 08°29' W 014°41'  
Track history (hours):
 
Tides and Currents Weather Stations Pressure Air Temp Water Temp Dewpoint Dewpoint Depression Visibility Wind Speed Wind Dir Waves Ship Positions

Eser

Last reported at 2018-May-27 22:03 UTC. Time now 2018-Jun-25 11:42 UTC.
Position N 09°15' W 015°21'.
Warning: this ship's position is 28 days out of date.

Length 99 m; draft 4.3 m.

Type: Cargo ship. MMSI: 353595000.

Date/timePositionNaut miles runAvg speedWind from/ knotsBaromVisibWave heightAir tempDewpointWater temp
2018-May-27 22:03N 09°15' W 015°21'511.8
2018-May-27 21:36N 09°19' W 015°25'  
2018-May-18 08:52N 09°04' W 015°12'10 9.2
2018-May-18 07:48N 08°57' W 015°05'3 9.4
2018-May-18 07:30N 08°55' W 015°03'5 9.6
2018-May-18 07:00N 08°51' W 015°00'6 9.4
2018-May-18 06:25N 08°47' W 014°56'4 9.4
2018-May-18 06:00N 08°44' W 014°54'5 9.6
2018-May-18 05:30N 08°40' W 014°51'10 9.7
2018-May-18 04:26N 08°33' W 014°44'4 9.8
2018-May-18 04:00N 08°29' W 014°41'  

Dump ship's entire track history